sensor_id;sensor_type;location;lat;lon;timestamp;pressure;altitude;pressure_sealevel;temperature;humidity
48041;BME280;33815;48.386;11.738;2022-07-29T00:01:44;96465.88;;;18.65;100.00
48041;BME280;33815;48.386;11.738;2022-07-29T00:04:10;96454.13;;;18.55;100.00
48041;BME280;33815;48.386;11.738;2022-07-29T00:06:35;96457.34;;;18.57;100.00
48041;BME280;33815;48.386;11.738;2022-07-29T00:09:00;96464.69;;;18.55;100.00
48041;BME280;33815;48.386;11.738;2022-07-29T00:11:25;96459.00;;;18.58;100.00
48041;BME280;33815;48.386;11.738;2022-07-29T00:13:51;96468.31;;;18.54;100.00
48041;BME280;33815;48.386;11.738;2022-07-29T00:16:16;96465.91;;;18.52;100.00
48041;BME280;33815;48.386;11.738;2022-07-29T00:18:41;96460.41;;;18.47;100.00
48041;BME280;33815;48.386;11.738;2022-07-29T00:21:07;96468.75;;;18.57;100.00
48041;BME280;33815;48.386;11.738;2022-07-29T00:23:32;96469.13;;;18.54;100.00
48041;BME280;33815;48.386;11.738;2022-07-29T00:25:57;96455.34;;;18.52;100.00
48041;BME280;33815;48.386;11.738;2022-07-29T00:28:23;96460.84;;;18.57;100.00
48041;BME280;33815;48.386;11.738;2022-07-29T00:30:48;96457.16;;;18.45;100.00
48041;BME280;33815;48.386;11.738;2022-07-29T00:33:13;96441.75;;;18.28;100.00
48041;BME280;33815;48.386;11.738;2022-07-29T00:35:39;96456.13;;;18.26;100.00
48041;BME280;33815;48.386;11.738;2022-07-29T00:38:14;96443.75;;;18.13;100.00
48041;BME280;33815;48.386;11.738;2022-07-29T00:40:41;96453.50;;;18.12;100.00
48041;BME280;33815;48.386;11.738;2022-07-29T00:43:06;96449.25;;;18.18;100.00
48041;BME280;33815;48.386;11.738;2022-07-29T00:45:32;96451.47;;;18.21;100.00
48041;BME280;33815;48.386;11.738;2022-07-29T00:47:57;96452.06;;;18.10;100.00
48041;BME280;33815;48.386;11.738;2022-07-29T00:50:23;96446.78;;;18.03;100.00
48041;BME280;33815;48.386;11.738;2022-07-29T00:52:50;96443.13;;;18.04;100.00
48041;BME280;33815;48.386;11.738;2022-07-29T00:55:16;96434.22;;;17.98;100.00
48041;BME280;33815;48.386;11.738;2022-07-29T00:57:43;96451.66;;;18.13;100.00
48041;BME280;33815;48.386;11.738;2022-07-29T01:00:20;96458.75;;;17.99;100.00
48041;BME280;33815;48.386;11.738;2022-07-29T01:02:47;96456.50;;;17.96;100.00
48041;BME280;33815;48.386;11.738;2022-07-29T01:05:17;96446.31;;;17.86;100.00
48041;BME280;33815;48.386;11.738;2022-07-29T01:07:44;96433.09;;;17.73;100.00
48041;BME280;33815;48.386;11.738;2022-07-29T01:10:12;96445.69;;;17.77;100.00
48041;BME280;33815;48.386;11.738;2022-07-29T01:12:38;96442.22;;;17.77;100.00
48041;BME280;33815;48.386;11.738;2022-07-29T01:15:06;96427.25;;;17.77;100.00
48041;BME280;33815;48.386;11.738;2022-07-29T01:17:50;96439.63;;;17.90;100.00
48041;BME280;33815;48.386;11.738;2022-07-29T01:23:08;96432.47;;;17.64;100.00
48041;BME280;33815;48.386;11.738;2022-07-29T01:31:39;96440.97;;;17.59;100.00
48041;BME280;33815;48.386;11.738;2022-07-29T01:34:08;96448.44;;;17.56;100.00
48041;BME280;33815;48.386;11.738;2022-07-29T01:36:48;96448.25;;;17.57;100.00
48041;BME280;33815;48.386;11.738;2022-07-29T01:39:22;96438.13;;;17.61;100.00
48041;BME280;33815;48.386;11.738;2022-07-29T01:41:58;96444.78;;;17.50;100.00
48041;BME280;33815;48.386;11.738;2022-07-29T01:44:35;96443.56;;;17.46;100.00
48041;BME280;33815;48.386;11.738;2022-07-29T01:47:17;96440.13;;;17.45;100.00
48041;BME280;33815;48.386;11.738;2022-07-29T01:49:48;96432.38;;;17.37;100.00
48041;BME280;33815;48.386;11.738;2022-07-29T01:52:20;96417.78;;;17.35;100.00
48041;BME280;33815;48.386;11.738;2022-07-29T01:54:54;96414.94;;;17.29;100.00
48041;BME280;33815;48.386;11.738;2022-07-29T01:57:25;96400.09;;;17.22;100.00
48041;BME280;33815;48.386;11.738;2022-07-29T01:59:52;96414.06;;;17.22;100.00
48041;BME280;33815;48.386;11.738;2022-07-29T02:02:18;96409.59;;;17.16;100.00
48041;BME280;33815;48.386;11.738;2022-07-29T02:04:46;96397.41;;;17.08;100.00
48041;BME280;33815;48.386;11.738;2022-07-29T02:07:16;96389.50;;;17.08;100.00
48041;BME280;33815;48.386;11.738;2022-07-29T02:09:43;96406.38;;;17.14;100.00
48041;BME280;33815;48.386;11.738;2022-07-29T02:12:10;96401.47;;;17.11;100.00
48041;BME280;33815;48.386;11.738;2022-07-29T02:14:39;96404.50;;;17.08;100.00
48041;BME280;33815;48.386;11.738;2022-07-29T02:17:05;96405.34;;;17.15;100.00
48041;BME280;33815;48.386;11.738;2022-07-29T02:19:32;96400.72;;;17.24;100.00
48041;BME280;33815;48.386;11.738;2022-07-29T02:22:00;96408.41;;;17.19;100.00
48041;BME280;33815;48.386;11.738;2022-07-29T02:24:28;96379.72;;;16.95;100.00
48041;BME280;33815;48.386;11.738;2022-07-29T02:26:56;96371.00;;;16.88;100.00
48041;BME280;33815;48.386;11.738;2022-07-29T02:29:25;96390.53;;;17.07;100.00
48041;BME280;33815;48.386;11.738;2022-07-29T02:31:51;96379.16;;;17.00;100.00
48041;BME280;33815;48.386;11.738;2022-07-29T02:34:19;96379.72;;;16.95;100.00
48041;BME280;33815;48.386;11.738;2022-07-29T02:36:46;96370.56;;;16.85;100.00
48041;BME280;33815;48.386;11.738;2022-07-29T02:39:12;96383.94;;;16.90;100.00
48041;BME280;33815;48.386;11.738;2022-07-29T02:41:51;96372.56;;;16.83;100.00
48041;BME280;33815;48.386;11.738;2022-07-29T02:44:19;96371.63;;;16.90;100.00
48041;BME280;33815;48.386;11.738;2022-07-29T02:46:51;96373.97;;;17.20;100.00
48041;BME280;33815;48.386;11.738;2022-07-29T02:55:15;96371.31;;;16.78;100.00
48041;BME280;33815;48.386;11.738;2022-07-29T02:57:44;96368.06;;;16.76;100.00
48041;BME280;33815;48.386;11.738;2022-07-29T03:00:12;96380.94;;;16.93;100.00
48041;BME280;33815;48.386;11.738;2022-07-29T03:02:40;96380.56;;;16.96;100.00
48041;BME280;33815;48.386;11.738;2022-07-29T03:05:09;96383.38;;;16.94;100.00
48041;BME280;33815;48.386;11.738;2022-07-29T03:07:37;96377.09;;;16.95;100.00
48041;BME280;33815;48.386;11.738;2022-07-29T03:10:06;96381.13;;;16.91;100.00
48041;BME280;33815;48.386;11.738;2022-07-29T03:12:31;96375.38;;;16.81;100.00
48041;BME280;33815;48.386;11.738;2022-07-29T03:14:58;96386.09;;;16.79;100.00
48041;BME280;33815;48.386;11.738;2022-07-29T03:17:24;96390.38;;;16.81;100.00
48041;BME280;33815;48.386;11.738;2022-07-29T03:19:50;96388.69;;;16.73;100.00
48041;BME280;33815;48.386;11.738;2022-07-29T03:22:15;96387.44;;;16.69;100.00
48041;BME280;33815;48.386;11.738;2022-07-29T03:24:41;96375.28;;;16.61;100.00
48041;BME280;33815;48.386;11.738;2022-07-29T03:27:06;96368.19;;;16.61;100.00
48041;BME280;33815;48.386;11.738;2022-07-29T03:29:32;96388.25;;;16.63;100.00
48041;BME280;33815;48.386;11.738;2022-07-29T03:31:57;96382.94;;;16.56;100.00
48041;BME280;33815;48.386;11.738;2022-07-29T03:34:23;96389.16;;;16.48;100.00
48041;BME280;33815;48.386;11.738;2022-07-29T03:36:49;96380.97;;;16.36;100.00
48041;BME280;33815;48.386;11.738;2022-07-29T03:39:20;96383.00;;;16.34;100.00
48041;BME280;33815;48.386;11.738;2022-07-29T03:41:49;96383.75;;;16.28;100.00
48041;BME280;33815;48.386;11.738;2022-07-29T03:44:16;96400.34;;;16.29;100.00
48041;BME280;33815;48.386;11.738;2022-07-29T03:46:43;96394.41;;;16.20;100.00
48041;BME280;33815;48.386;11.738;2022-07-29T03:49:10;96381.63;;;16.17;100.00
48041;BME280;33815;48.386;11.738;2022-07-29T03:51:37;96375.19;;;16.19;100.00
48041;BME280;33815;48.386;11.738;2022-07-29T03:54:04;96382.44;;;16.17;100.00
48041;BME280;33815;48.386;11.738;2022-07-29T03:56:32;96387.41;;;16.05;100.00
48041;BME280;33815;48.386;11.738;2022-07-29T03:59:01;96389.38;;;15.97;100.00
48041;BME280;33815;48.386;11.738;2022-07-29T04:01:27;96397.78;;;15.92;100.00
48041;BME280;33815;48.386;11.738;2022-07-29T04:03:52;96386.34;;;15.78;100.00
48041;BME280;33815;48.386;11.738;2022-07-29T04:06:18;96398.69;;;15.99;100.00
48041;BME280;33815;48.386;11.738;2022-07-29T04:08:43;96388.22;;;16.06;100.00
48041;BME280;33815;48.386;11.738;2022-07-29T04:11:08;96389.97;;;15.99;100.00
48041;BME280;33815;48.386;11.738;2022-07-29T04:13:34;96404.94;;;15.98;100.00
48041;BME280;33815;48.386;11.738;2022-07-29T04:15:59;96409.72;;;15.88;100.00
48041;BME280;33815;48.386;11.738;2022-07-29T04:18:26;96391.75;;;15.76;100.00
48041;BME280;33815;48.386;11.738;2022-07-29T04:20:51;96402.00;;;15.86;100.00
48041;BME280;33815;48.386;11.738;2022-07-29T04:23:17;96403.44;;;15.89;100.00
48041;BME280;33815;48.386;11.738;2022-07-29T04:25:42;96408.28;;;15.85;100.00
48041;BME280;33815;48.386;11.738;2022-07-29T04:28:09;96400.00;;;15.88;100.00
48041;BME280;33815;48.386;11.738;2022-07-29T04:30:36;96396.56;;;15.88;100.00
48041;BME280;33815;48.386;11.738;2022-07-29T04:33:03;96410.19;;;15.98;100.00
48041;BME280;33815;48.386;11.738;2022-07-29T04:35:30;96403.38;;;16.04;100.00
48041;BME280;33815;48.386;11.738;2022-07-29T04:37:56;96401.00;;;16.09;100.00
48041;BME280;33815;48.386;11.738;2022-07-29T04:40:21;96399.56;;;16.06;100.00
48041;BME280;33815;48.386;11.738;2022-07-29T04:42:47;96402.00;;;16.08;100.00
48041;BME280;33815;48.386;11.738;2022-07-29T04:45:12;96408.06;;;16.08;100.00
48041;BME280;33815;48.386;11.738;2022-07-29T04:47:37;96391.16;;;15.96;100.00
48041;BME280;33815;48.386;11.738;2022-07-29T04:50:03;96411.53;;;16.09;100.00
48041;BME280;33815;48.386;11.738;2022-07-29T04:52:30;96407.25;;;16.08;100.00
48041;BME280;33815;48.386;11.738;2022-07-29T04:54:55;96412.06;;;16.04;100.00
48041;BME280;33815;48.386;11.738;2022-07-29T04:57:20;96412.31;;;16.09;100.00
48041;BME280;33815;48.386;11.738;2022-07-29T04:59:46;96400.50;;;16.20;100.00
48041;BME280;33815;48.386;11.738;2022-07-29T05:02:11;96396.84;;;16.21;100.00
48041;BME280;33815;48.386;11.738;2022-07-29T05:04:36;96408.56;;;16.19;100.00
48041;BME280;33815;48.386;11.738;2022-07-29T05:07:01;96401.22;;;16.14;100.00
48041;BME280;33815;48.386;11.738;2022-07-29T05:09:27;96418.91;;;16.20;100.00
48041;BME280;33815;48.386;11.738;2022-07-29T05:11:52;96412.25;;;16.24;100.00
48041;BME280;33815;48.386;11.738;2022-07-29T05:14:17;96413.53;;;16.35;100.00
48041;BME280;33815;48.386;11.738;2022-07-29T05:16:43;96407.94;;;16.45;100.00
48041;BME280;33815;48.386;11.738;2022-07-29T05:19:08;96414.50;;;16.56;100.00
48041;BME280;33815;48.386;11.738;2022-07-29T05:21:34;96430.72;;;16.59;100.00
48041;BME280;33815;48.386;11.738;2022-07-29T05:23:59;96422.84;;;16.66;100.00
48041;BME280;33815;48.386;11.738;2022-07-29T05:26:24;96419.81;;;16.63;100.00
48041;BME280;33815;48.386;11.738;2022-07-29T05:28:49;96421.66;;;16.69;100.00
48041;BME280;33815;48.386;11.738;2022-07-29T05:31:15;96426.72;;;16.64;100.00
48041;BME280;33815;48.386;11.738;2022-07-29T05:33:41;96433.16;;;16.61;100.00
48041;BME280;33815;48.386;11.738;2022-07-29T05:36:06;96432.78;;;16.64;100.00
48041;BME280;33815;48.386;11.738;2022-07-29T05:38:32;96442.09;;;16.67;100.00
48041;BME280;33815;48.386;11.738;2022-07-29T05:40:58;96438.09;;;16.77;100.00
48041;BME280;33815;48.386;11.738;2022-07-29T05:43:27;96442.38;;;16.78;100.00
48041;BME280;33815;48.386;11.738;2022-07-29T05:45:53;96437.44;;;16.90;100.00
48041;BME280;33815;48.386;11.738;2022-07-29T05:48:18;96429.66;;;16.82;100.00
48041;BME280;33815;48.386;11.738;2022-07-29T05:50:43;96435.00;;;16.95;100.00
48041;BME280;33815;48.386;11.738;2022-07-29T05:53:08;96429.75;;;16.95;100.00
48041;BME280;33815;48.386;11.738;2022-07-29T05:55:34;96436.75;;;17.17;100.00
48041;BME280;33815;48.386;11.738;2022-07-29T05:57:59;96435.94;;;17.16;100.00
48041;BME280;33815;48.386;11.738;2022-07-29T06:00:24;96440.81;;;17.19;100.00
48041;BME280;33815;48.386;11.738;2022-07-29T06:02:49;96440.25;;;17.30;100.00
48041;BME280;33815;48.386;11.738;2022-07-29T06:05:15;96450.03;;;17.43;100.00
48041;BME280;33815;48.386;11.738;2022-07-29T06:07:40;96450.69;;;17.59;100.00
48041;BME280;33815;48.386;11.738;2022-07-29T06:10:06;96460.66;;;17.63;100.00
48041;BME280;33815;48.386;11.738;2022-07-29T06:12:32;96450.31;;;17.69;100.00
48041;BME280;33815;48.386;11.738;2022-07-29T06:14:57;96456.91;;;18.00;100.00
48041;BME280;33815;48.386;11.738;2022-07-29T06:17:23;96460.97;;;17.95;100.00
48041;BME280;33815;48.386;11.738;2022-07-29T06:19:48;96463.41;;;18.04;100.00
48041;BME280;33815;48.386;11.738;2022-07-29T06:22:15;96463.22;;;18.19;100.00
48041;BME280;33815;48.386;11.738;2022-07-29T06:24:41;96461.22;;;18.34;100.00
48041;BME280;33815;48.386;11.738;2022-07-29T06:27:12;96455.34;;;18.45;100.00
48041;BME280;33815;48.386;11.738;2022-07-29T06:29:37;96453.72;;;18.58;100.00
48041;BME280;33815;48.386;11.738;2022-07-29T06:32:03;96454.50;;;18.72;99.38
48041;BME280;33815;48.386;11.738;2022-07-29T06:34:28;96449.22;;;18.72;99.63
48041;BME280;33815;48.386;11.738;2022-07-29T06:36:54;96449.81;;;18.80;98.39
48041;BME280;33815;48.386;11.738;2022-07-29T06:39:20;96447.19;;;18.74;98.26
48041;BME280;33815;48.386;11.738;2022-07-29T06:41:49;96451.03;;;18.78;97.22
48041;BME280;33815;48.386;11.738;2022-07-29T06:44:16;96448.03;;;18.74;98.04
48041;BME280;33815;48.386;11.738;2022-07-29T06:46:41;96439.69;;;18.71;98.58
48041;BME280;33815;48.386;11.738;2022-07-29T06:49:07;96449.84;;;18.87;98.57
48041;BME280;33815;48.386;11.738;2022-07-29T06:51:33;96447.38;;;19.06;96.68
48041;BME280;33815;48.386;11.738;2022-07-29T06:53:58;96446.31;;;19.20;95.61
48041;BME280;33815;48.386;11.738;2022-07-29T06:56:23;96442.19;;;19.38;92.03
48041;BME280;33815;48.386;11.738;2022-07-29T06:58:49;96445.19;;;19.48;91.77
48041;BME280;33815;48.386;11.738;2022-07-29T07:01:14;96444.94;;;19.63;89.65
48041;BME280;33815;48.386;11.738;2022-07-29T07:03:39;96455.63;;;19.88;87.36
48041;BME280;33815;48.386;11.738;2022-07-29T07:06:05;96449.69;;;19.93;85.76
48041;BME280;33815;48.386;11.738;2022-07-29T07:08:30;96443.69;;;20.04;86.12
48041;BME280;33815;48.386;11.738;2022-07-29T07:10:55;96444.66;;;20.16;85.40
48041;BME280;33815;48.386;11.738;2022-07-29T07:13:22;96449.78;;;20.36;85.14
48041;BME280;33815;48.386;11.738;2022-07-29T07:15:47;96456.19;;;20.54;82.97
48041;BME280;33815;48.386;11.738;2022-07-29T07:18:14;96460.53;;;20.42;82.84
48041;BME280;33815;48.386;11.738;2022-07-29T07:20:40;96460.84;;;20.52;84.18
48041;BME280;33815;48.386;11.738;2022-07-29T07:23:05;96458.66;;;20.49;84.45
48041;BME280;33815;48.386;11.738;2022-07-29T07:25:31;96453.75;;;20.52;84.44
48041;BME280;33815;48.386;11.738;2022-07-29T07:27:57;96456.41;;;20.78;83.16
48041;BME280;33815;48.386;11.738;2022-07-29T07:30:22;96457.94;;;20.85;83.04
48041;BME280;33815;48.386;11.738;2022-07-29T07:32:48;96451.94;;;20.97;81.51
48041;BME280;33815;48.386;11.738;2022-07-29T07:35:13;96452.47;;;21.05;81.83
48041;BME280;33815;48.386;11.738;2022-07-29T07:37:39;96456.72;;;21.07;82.08
48041;BME280;33815;48.386;11.738;2022-07-29T07:40:09;96454.38;;;21.17;81.45
48041;BME280;33815;48.386;11.738;2022-07-29T07:42:35;96462.16;;;21.49;80.56
48041;BME280;33815;48.386;11.738;2022-07-29T07:45:00;96447.09;;;21.80;77.18
48041;BME280;33815;48.386;11.738;2022-07-29T07:47:25;96437.03;;;21.70;76.90
48041;BME280;33815;48.386;11.738;2022-07-29T07:49:51;96447.03;;;21.86;78.23
48041;BME280;33815;48.386;11.738;2022-07-29T07:52:18;96441.00;;;22.10;80.04
48041;BME280;33815;48.386;11.738;2022-07-29T07:54:44;96436.88;;;22.25;78.62
48041;BME280;33815;48.386;11.738;2022-07-29T07:57:10;96425.31;;;22.20;73.22
48041;BME280;33815;48.386;11.738;2022-07-29T07:59:36;96433.22;;;22.38;72.37
48041;BME280;33815;48.386;11.738;2022-07-29T08:02:01;96437.03;;;22.42;73.50
48041;BME280;33815;48.386;11.738;2022-07-29T08:04:27;96435.31;;;22.48;71.91
48041;BME280;33815;48.386;11.738;2022-07-29T08:06:52;96436.38;;;22.59;71.65
48041;BME280;33815;48.386;11.738;2022-07-29T08:09:20;96442.84;;;22.63;70.63
48041;BME280;33815;48.386;11.738;2022-07-29T08:11:45;96441.66;;;22.71;71.40
48041;BME280;33815;48.386;11.738;2022-07-29T08:14:10;96434.97;;;23.16;73.91
48041;BME280;33815;48.386;11.738;2022-07-29T08:16:35;96416.59;;;23.26;69.25
48041;BME280;33815;48.386;11.738;2022-07-29T08:19:01;96432.94;;;23.47;66.45
48041;BME280;33815;48.386;11.738;2022-07-29T08:21:26;96426.09;;;23.51;63.65
48041;BME280;33815;48.386;11.738;2022-07-29T08:23:51;96443.91;;;23.91;65.22
48041;BME280;33815;48.386;11.738;2022-07-29T08:26:41;96435.81;;;24.32;62.15
48041;BME280;33815;48.386;11.738;2022-07-29T08:29:06;96427.28;;;24.63;60.90
48041;BME280;33815;48.386;11.738;2022-07-29T08:31:31;96437.34;;;24.78;61.55
48041;BME280;33815;48.386;11.738;2022-07-29T08:33:56;96435.97;;;24.93;60.60
48041;BME280;33815;48.386;11.738;2022-07-29T08:36:25;96436.09;;;25.03;60.59
48041;BME280;33815;48.386;11.738;2022-07-29T08:38:50;96439.34;;;25.05;61.01
48041;BME280;33815;48.386;11.738;2022-07-29T08:41:16;96438.38;;;25.56;55.72
48041;BME280;33815;48.386;11.738;2022-07-29T08:43:43;96439.50;;;25.38;56.46
48041;BME280;33815;48.386;11.738;2022-07-29T08:46:09;96447.50;;;25.38;58.49
48041;BME280;33815;48.386;11.738;2022-07-29T08:48:35;96443.03;;;25.93;60.20
48041;BME280;33815;48.386;11.738;2022-07-29T08:51:01;96441.28;;;26.31;56.63
48041;BME280;33815;48.386;11.738;2022-07-29T08:53:26;96434.53;;;26.56;53.60
48041;BME280;33815;48.386;11.738;2022-07-29T08:55:54;96430.69;;;27.27;51.88
48041;BME280;33815;48.386;11.738;2022-07-29T08:58:20;96434.28;;;27.43;51.15
48041;BME280;33815;48.386;11.738;2022-07-29T09:00:50;96435.94;;;27.59;51.85
48041;BME280;33815;48.386;11.738;2022-07-29T09:03:18;96437.91;;;27.26;51.76
48041;BME280;33815;48.386;11.738;2022-07-29T09:05:45;96431.88;;;27.51;52.04
48041;BME280;33815;48.386;11.738;2022-07-29T09:08:12;96431.75;;;27.99;50.82
48041;BME280;33815;48.386;11.738;2022-07-29T09:10:38;96424.56;;;28.46;48.64
48041;BME280;33815;48.386;11.738;2022-07-29T09:13:03;96417.59;;;28.45;46.47
48041;BME280;33815;48.386;11.738;2022-07-29T09:15:28;96423.75;;;28.20;46.89
48041;BME280;33815;48.386;11.738;2022-07-29T09:17:54;96420.66;;;27.60;47.67
48041;BME280;33815;48.386;11.738;2022-07-29T09:20:22;96425.94;;;27.39;47.99
48041;BME280;33815;48.386;11.738;2022-07-29T09:22:49;96428.34;;;27.41;51.32
48041;BME280;33815;48.386;11.738;2022-07-29T09:28:08;96426.63;;;27.88;46.21
48041;BME280;33815;48.386;11.738;2022-07-29T09:30:35;96423.91;;;27.67;46.40
48041;BME280;33815;48.386;11.738;2022-07-29T09:33:02;96428.16;;;27.63;46.78
48041;BME280;33815;48.386;11.738;2022-07-29T09:35:29;96425.28;;;27.85;47.27
48041;BME280;33815;48.386;11.738;2022-07-29T09:37:54;96414.78;;;27.63;45.36
48041;BME280;33815;48.386;11.738;2022-07-29T09:40:26;96405.72;;;27.79;45.46
48041;BME280;33815;48.386;11.738;2022-07-29T09:42:51;96407.88;;;27.82;43.87
48041;BME280;33815;48.386;11.738;2022-07-29T09:45:33;96406.78;;;27.68;47.04
48041;BME280;33815;48.386;11.738;2022-07-29T09:47:59;96399.50;;;27.63;44.36
48041;BME280;33815;48.386;11.738;2022-07-29T09:50:38;96417.22;;;27.69;45.88
48041;BME280;33815;48.386;11.738;2022-07-29T09:53:05;96401.72;;;27.87;44.27
48041;BME280;33815;48.386;11.738;2022-07-29T09:55:30;96420.13;;;27.63;46.61
48041;BME280;33815;48.386;11.738;2022-07-29T09:58:15;96411.69;;;28.07;45.51
48041;BME280;33815;48.386;11.738;2022-07-29T10:00:42;96408.47;;;28.05;45.14
48041;BME280;33815;48.386;11.738;2022-07-29T10:03:08;96401.69;;;27.72;44.96
48041;BME280;33815;48.386;11.738;2022-07-29T10:05:34;96407.69;;;27.31;44.57
48041;BME280;33815;48.386;11.738;2022-07-29T10:07:59;96415.72;;;27.26;47.40
48041;BME280;33815;48.386;11.738;2022-07-29T10:10:32;96416.31;;;27.38;47.44
48041;BME280;33815;48.386;11.738;2022-07-29T10:13:00;96412.94;;;27.05;46.52
48041;BME280;33815;48.386;11.738;2022-07-29T10:15:31;96404.91;;;27.05;47.79
48041;BME280;33815;48.386;11.738;2022-07-29T10:17:58;96419.16;;;27.16;47.13
48041;BME280;33815;48.386;11.738;2022-07-29T10:20:24;96415.88;;;27.77;47.68
48041;BME280;33815;48.386;11.738;2022-07-29T10:22:50;96418.38;;;28.30;46.50
48041;BME280;33815;48.386;11.738;2022-07-29T10:25:17;96401.50;;;28.30;44.14
48041;BME280;33815;48.386;11.738;2022-07-29T10:27:43;96415.91;;;27.93;45.51
48041;BME280;33815;48.386;11.738;2022-07-29T10:30:10;96407.88;;;27.88;46.50
48041;BME280;33815;48.386;11.738;2022-07-29T10:32:50;96411.16;;;28.31;46.56
48041;BME280;33815;48.386;11.738;2022-07-29T10:38:16;96418.59;;;27.88;47.55
48041;BME280;33815;48.386;11.738;2022-07-29T10:41:09;96415.44;;;28.16;46.32
48041;BME280;33815;48.386;11.738;2022-07-29T10:43:53;96409.50;;;27.94;45.91
48041;BME280;33815;48.386;11.738;2022-07-29T10:46:19;96412.97;;;27.89;47.79
48041;BME280;33815;48.386;11.738;2022-07-29T10:49:11;96420.75;;;27.96;48.12
48041;BME280;33815;48.386;11.738;2022-07-29T10:54:48;96415.13;;;27.13;48.13
48041;BME280;33815;48.386;11.738;2022-07-29T10:59:43;96417.03;;;27.28;48.56
48041;BME280;33815;48.386;11.738;2022-07-29T11:05:03;96416.25;;;28.01;46.50
48041;BME280;33815;48.386;11.738;2022-07-29T11:07:30;96401.25;;;28.21;48.21
48041;BME280;33815;48.386;11.738;2022-07-29T11:15:09;96397.03;;;29.82;43.47
48041;BME280;33815;48.386;11.738;2022-07-29T11:20:38;96401.13;;;29.14;44.24
48041;BME280;33815;48.386;11.738;2022-07-29T11:23:25;96402.56;;;28.54;45.03
48041;BME280;33815;48.386;11.738;2022-07-29T11:31:31;96397.09;;;29.16;44.88
48041;BME280;33815;48.386;11.738;2022-07-29T11:34:30;96394.63;;;29.30;45.36
48041;BME280;33815;48.386;11.738;2022-07-29T11:45:04;96380.19;;;29.11;45.28
48041;BME280;33815;48.386;11.738;2022-07-29T11:47:38;96390.75;;;28.81;45.09
48041;BME280;33815;48.386;11.738;2022-07-29T11:50:08;96387.56;;;28.69;46.13
48041;BME280;33815;48.386;11.738;2022-07-29T11:52:45;96383.53;;;28.56;45.41
48041;BME280;33815;48.386;11.738;2022-07-29T11:55:14;96376.84;;;28.33;45.59
48041;BME280;33815;48.386;11.738;2022-07-29T11:57:54;96359.31;;;28.97;44.29
48041;BME280;33815;48.386;11.738;2022-07-29T12:00:40;96371.22;;;29.46;44.62
48041;BME280;33815;48.386;11.738;2022-07-29T12:03:07;96365.06;;;30.20;43.91
48041;BME280;33815;48.386;11.738;2022-07-29T12:05:41;96360.84;;;30.72;41.71
48041;BME280;33815;48.386;11.738;2022-07-29T12:08:12;96334.28;;;30.90;37.92
48041;BME280;33815;48.386;11.738;2022-07-29T12:10:38;96336.19;;;30.89;37.25
48041;BME280;33815;48.386;11.738;2022-07-29T12:13:04;96349.69;;;30.60;38.51
48041;BME280;33815;48.386;11.738;2022-07-29T12:15:29;96335.44;;;30.60;36.97
48041;BME280;33815;48.386;11.738;2022-07-29T12:17:55;96345.09;;;30.61;35.18
48041;BME280;33815;48.386;11.738;2022-07-29T12:20:28;96346.72;;;30.27;37.12
48041;BME280;33815;48.386;11.738;2022-07-29T12:22:55;96353.44;;;30.30;38.73
48041;BME280;33815;48.386;11.738;2022-07-29T12:25:22;96345.16;;;30.26;35.25
48041;BME280;33815;48.386;11.738;2022-07-29T12:27:57;96342.56;;;29.76;35.72
48041;BME280;33815;48.386;11.738;2022-07-29T12:30:23;96332.28;;;29.44;36.23
48041;BME280;33815;48.386;11.738;2022-07-29T12:32:58;96338.50;;;29.39;37.34
48041;BME280;33815;48.386;11.738;2022-07-29T12:35:24;96344.41;;;29.36;38.56
48041;BME280;33815;48.386;11.738;2022-07-29T12:37:49;96351.47;;;29.11;38.83
48041;BME280;33815;48.386;11.738;2022-07-29T12:40:17;96333.22;;;29.13;37.80
48041;BME280;33815;48.386;11.738;2022-07-29T12:43:08;96343.72;;;29.60;37.65
48041;BME280;33815;48.386;11.738;2022-07-29T12:45:38;96341.28;;;30.08;36.98
48041;BME280;33815;48.386;11.738;2022-07-29T12:48:04;96344.88;;;30.57;38.62
48041;BME280;33815;48.386;11.738;2022-07-29T12:50:30;96323.59;;;30.85;34.51
48041;BME280;33815;48.386;11.738;2022-07-29T12:53:08;96331.91;;;30.00;36.46
48041;BME280;33815;48.386;11.738;2022-07-29T12:55:43;96327.22;;;30.75;38.15
48041;BME280;33815;48.386;11.738;2022-07-29T12:58:09;96314.28;;;31.20;34.22
48041;BME280;33815;48.386;11.738;2022-07-29T13:00:34;96317.78;;;31.02;34.72
48041;BME280;33815;48.386;11.738;2022-07-29T13:03:00;96318.09;;;30.95;36.51
48041;BME280;33815;48.386;11.738;2022-07-29T13:05:40;96323.81;;;31.13;36.99
48041;BME280;33815;48.386;11.738;2022-07-29T13:08:13;96325.25;;;31.05;36.67
48041;BME280;33815;48.386;11.738;2022-07-29T13:10:39;96310.94;;;30.85;36.25
48041;BME280;33815;48.386;11.738;2022-07-29T13:13:12;96312.19;;;31.17;34.47
48041;BME280;33815;48.386;11.738;2022-07-29T13:15:40;96300.03;;;31.39;32.30
48041;BME280;33815;48.386;11.738;2022-07-29T13:18:29;96301.53;;;31.07;32.84
48041;BME280;33815;48.386;11.738;2022-07-29T13:20:56;96302.22;;;30.16;34.12
48041;BME280;33815;48.386;11.738;2022-07-29T13:23:22;96314.25;;;29.49;33.58
48041;BME280;33815;48.386;11.738;2022-07-29T13:25:47;96317.50;;;28.91;35.43
48041;BME280;33815;48.386;11.738;2022-07-29T13:28:13;96315.34;;;28.93;35.96
48041;BME280;33815;48.386;11.738;2022-07-29T13:30:39;96314.06;;;28.75;35.75
48041;BME280;33815;48.386;11.738;2022-07-29T13:33:05;96315.72;;;28.66;36.48
48041;BME280;33815;48.386;11.738;2022-07-29T13:35:30;96323.28;;;28.23;37.64
48041;BME280;33815;48.386;11.738;2022-07-29T13:37:55;96330.78;;;28.10;37.53
48041;BME280;33815;48.386;11.738;2022-07-29T13:40:21;96326.50;;;28.14;38.34